sensor_id;sensor_type;location;lat;lon;timestamp;pressure;altitude;pressure_sealevel;temperature
72405;BMP280;60395;52.020;113.548;2024-02-21T00:02:28;94682.66;;;-20.69
72405;BMP280;60395;52.020;113.548;2024-02-21T00:05:32;94676.00;;;-20.63
72405;BMP280;60395;52.020;113.548;2024-02-21T00:08:35;94678.22;;;-20.65
72405;BMP280;60395;52.020;113.548;2024-02-21T00:11:38;94677.13;;;-20.64
72405;BMP280;60395;52.020;113.548;2024-02-21T00:14:42;94679.06;;;-20.59
72405;BMP280;60395;52.020;113.548;2024-02-21T00:17:45;94677.56;;;-20.57
72405;BMP280;60395;52.020;113.548;2024-02-21T00:20:49;94688.91;;;-20.47
72405;BMP280;60395;52.020;113.548;2024-02-21T00:23:52;94693.78;;;-20.43
72405;BMP280;60395;52.020;113.548;2024-02-21T00:26:55;94697.50;;;-20.20
72405;BMP280;60395;52.020;113.548;2024-02-21T00:29:59;94691.63;;;-19.90
72405;BMP280;60395;52.020;113.548;2024-02-21T00:33:02;94702.81;;;-19.67
72405;BMP280;60395;52.020;113.548;2024-02-21T00:36:05;94708.19;;;-19.50
72405;BMP280;60395;52.020;113.548;2024-02-21T00:39:09;94707.75;;;-19.39
72405;BMP280;60395;52.020;113.548;2024-02-21T00:42:12;94705.38;;;-19.43
72405;BMP280;60395;52.020;113.548;2024-02-21T00:45:15;94716.66;;;-19.47
72405;BMP280;60395;52.020;113.548;2024-02-21T00:48:19;94714.84;;;-19.47
72405;BMP280;60395;52.020;113.548;2024-02-21T00:51:23;94713.00;;;-19.37
72405;BMP280;60395;52.020;113.548;2024-02-21T00:54:26;94720.75;;;-19.26
72405;BMP280;60395;52.020;113.548;2024-02-21T00:57:41;94725.72;;;-19.17
72405;BMP280;60395;52.020;113.548;2024-02-21T01:00:44;94724.41;;;-19.03
72405;BMP280;60395;52.020;113.548;2024-02-21T01:03:47;94730.16;;;-18.88
72405;BMP280;60395;52.020;113.548;2024-02-21T01:06:51;94729.38;;;-18.70
72405;BMP280;60395;52.020;113.548;2024-02-21T01:09:54;94727.06;;;-18.59
72405;BMP280;60395;52.020;113.548;2024-02-21T01:12:58;94724.94;;;-18.51
72405;BMP280;60395;52.020;113.548;2024-02-21T01:16:01;94727.38;;;-18.42
72405;BMP280;60395;52.020;113.548;2024-02-21T01:19:04;94730.84;;;-18.40
72405;BMP280;60395;52.020;113.548;2024-02-21T01:22:08;94736.19;;;-18.32
72405;BMP280;60395;52.020;113.548;2024-02-21T01:25:11;94726.69;;;-18.28
72405;BMP280;60395;52.020;113.548;2024-02-21T01:28:15;94734.16;;;-18.19
72405;BMP280;60395;52.020;113.548;2024-02-21T01:31:18;94719.19;;;-18.13
72405;BMP280;60395;52.020;113.548;2024-02-21T01:34:22;94714.09;;;-18.04
72405;BMP280;60395;52.020;113.548;2024-02-21T01:37:25;94718.34;;;-17.95
72405;BMP280;60395;52.020;113.548;2024-02-21T01:40:29;94711.66;;;-17.84
72405;BMP280;60395;52.020;113.548;2024-02-21T01:43:32;94711.56;;;-17.89
72405;BMP280;60395;52.020;113.548;2024-02-21T01:46:36;94710.81;;;-17.81
72405;BMP280;60395;52.020;113.548;2024-02-21T01:49:42;94725.84;;;-17.66
72405;BMP280;60395;52.020;113.548;2024-02-21T01:52:49;94720.38;;;-17.50
72405;BMP280;60395;52.020;113.548;2024-02-21T01:55:53;94716.28;;;-17.32
72405;BMP280;60395;52.020;113.548;2024-02-21T01:58:56;94720.75;;;-17.22
72405;BMP280;60395;52.020;113.548;2024-02-21T02:02:00;94719.38;;;-17.23
72405;BMP280;60395;52.020;113.548;2024-02-21T02:05:05;94709.31;;;-17.23
72405;BMP280;60395;52.020;113.548;2024-02-21T02:08:09;94709.66;;;-17.15
72405;BMP280;60395;52.020;113.548;2024-02-21T02:11:16;94710.75;;;-17.01
72405;BMP280;60395;52.020;113.548;2024-02-21T02:14:20;94711.03;;;-16.94
72405;BMP280;60395;52.020;113.548;2024-02-21T02:17:23;94705.72;;;-16.81
72405;BMP280;60395;52.020;113.548;2024-02-21T02:20:26;94705.06;;;-16.76
72405;BMP280;60395;52.020;113.548;2024-02-21T02:23:31;94698.53;;;-16.68
72405;BMP280;60395;52.020;113.548;2024-02-21T02:26:35;94692.47;;;-16.56
72405;BMP280;60395;52.020;113.548;2024-02-21T02:29:38;94696.91;;;-16.45
72405;BMP280;60395;52.020;113.548;2024-02-21T02:32:45;94698.84;;;-16.34
72405;BMP280;60395;52.020;113.548;2024-02-21T02:35:50;94700.97;;;-16.27
72405;BMP280;60395;52.020;113.548;2024-02-21T02:38:53;94705.88;;;-16.18
72405;BMP280;60395;52.020;113.548;2024-02-21T02:41:57;94709.66;;;-16.02
72405;BMP280;60395;52.020;113.548;2024-02-21T02:45:00;94708.53;;;-15.96
72405;BMP280;60395;52.020;113.548;2024-02-21T02:48:04;94703.97;;;-15.97
72405;BMP280;60395;52.020;113.548;2024-02-21T02:51:07;94703.03;;;-15.94
72405;BMP280;60395;52.020;113.548;2024-02-21T02:54:11;94705.13;;;-15.93
72405;BMP280;60395;52.020;113.548;2024-02-21T02:57:15;94701.22;;;-15.94
72405;BMP280;60395;52.020;113.548;2024-02-21T03:00:19;94686.19;;;-15.83
72405;BMP280;60395;52.020;113.548;2024-02-21T03:03:23;94692.44;;;-15.73
72405;BMP280;60395;52.020;113.548;2024-02-21T03:06:26;94691.16;;;-15.57
72405;BMP280;60395;52.020;113.548;2024-02-21T03:09:30;94688.53;;;-15.42
72405;BMP280;60395;52.020;113.548;2024-02-21T03:12:33;94688.09;;;-15.29
72405;BMP280;60395;52.020;113.548;2024-02-21T03:15:37;94679.66;;;-15.21
72405;BMP280;60395;52.020;113.548;2024-02-21T03:18:40;94684.31;;;-15.08
72405;BMP280;60395;52.020;113.548;2024-02-21T03:21:46;94688.47;;;-14.94
72405;BMP280;60395;52.020;113.548;2024-02-21T03:24:49;94687.59;;;-14.85
72405;BMP280;60395;52.020;113.548;2024-02-21T03:27:52;94696.31;;;-14.75
72405;BMP280;60395;52.020;113.548;2024-02-21T03:30:56;94692.91;;;-14.61
72405;BMP280;60395;52.020;113.548;2024-02-21T03:33:59;94680.06;;;-14.46
72405;BMP280;60395;52.020;113.548;2024-02-21T03:37:03;94681.47;;;-14.39
72405;BMP280;60395;52.020;113.548;2024-02-21T03:40:08;94676.69;;;-14.26
72405;BMP280;60395;52.020;113.548;2024-02-21T03:43:13;94669.81;;;-14.20
72405;BMP280;60395;52.020;113.548;2024-02-21T03:46:16;94671.63;;;-14.15
72405;BMP280;60395;52.020;113.548;2024-02-21T03:49:20;94680.09;;;-14.07
72405;BMP280;60395;52.020;113.548;2024-02-21T03:52:23;94678.97;;;-14.00
72405;BMP280;60395;52.020;113.548;2024-02-21T03:55:26;94675.97;;;-13.88
72405;BMP280;60395;52.020;113.548;2024-02-21T03:58:30;94681.00;;;-13.77
72405;BMP280;60395;52.020;113.548;2024-02-21T04:01:37;94674.53;;;-13.66
72405;BMP280;60395;52.020;113.548;2024-02-21T04:04:43;94671.53;;;-13.54
72405;BMP280;60395;52.020;113.548;2024-02-21T04:07:49;94670.34;;;-13.47
72405;BMP280;60395;52.020;113.548;2024-02-21T04:10:54;94671.69;;;-13.35
72405;BMP280;60395;52.020;113.548;2024-02-21T04:13:57;94676.00;;;-13.19
72405;BMP280;60395;52.020;113.548;2024-02-21T04:17:01;94676.00;;;-13.13
72405;BMP280;60395;52.020;113.548;2024-02-21T04:20:05;94671.38;;;-13.09
72405;BMP280;60395;52.020;113.548;2024-02-21T04:23:11;94664.22;;;-12.99
72405;BMP280;60395;52.020;113.548;2024-02-21T04:26:14;94662.75;;;-12.89
72405;BMP280;60395;52.020;113.548;2024-02-21T04:29:18;94661.78;;;-12.81
72405;BMP280;60395;52.020;113.548;2024-02-21T04:32:21;94658.72;;;-12.68
72405;BMP280;60395;52.020;113.548;2024-02-21T04:35:24;94668.63;;;-12.64
72405;BMP280;60395;52.020;113.548;2024-02-21T04:38:28;94664.59;;;-12.49
72405;BMP280;60395;52.020;113.548;2024-02-21T04:41:31;94658.50;;;-12.34
72405;BMP280;60395;52.020;113.548;2024-02-21T04:44:35;94653.34;;;-12.23
72405;BMP280;60395;52.020;113.548;2024-02-21T04:47:39;94649.16;;;-12.15
72405;BMP280;60395;52.020;113.548;2024-02-21T04:50:42;94648.81;;;-12.06
72405;BMP280;60395;52.020;113.548;2024-02-21T04:53:45;94654.00;;;-11.93
72405;BMP280;60395;52.020;113.548;2024-02-21T04:56:49;94653.28;;;-11.88
72405;BMP280;60395;52.020;113.548;2024-02-21T04:59:54;94652.72;;;-11.81
72405;BMP280;60395;52.020;113.548;2024-02-21T05:02:58;94644.44;;;-11.81
72405;BMP280;60395;52.020;113.548;2024-02-21T05:06:01;94643.91;;;-11.74
72405;BMP280;60395;52.020;113.548;2024-02-21T05:09:06;94632.91;;;-11.58
72405;BMP280;60395;52.020;113.548;2024-02-21T05:12:09;94620.31;;;-11.45
72405;BMP280;60395;52.020;113.548;2024-02-21T05:15:12;94631.84;;;-11.44
72405;BMP280;60395;52.020;113.548;2024-02-21T05:18:16;94630.84;;;-11.41
72405;BMP280;60395;52.020;113.548;2024-02-21T05:21:19;94629.44;;;-11.36
72405;BMP280;60395;52.020;113.548;2024-02-21T05:24:23;94627.72;;;-11.28
72405;BMP280;60395;52.020;113.548;2024-02-21T05:27:26;94629.41;;;-11.17
72405;BMP280;60395;52.020;113.548;2024-02-21T05:30:30;94639.19;;;-11.08
72405;BMP280;60395;52.020;113.548;2024-02-21T05:33:33;94632.41;;;-11.00
72405;BMP280;60395;52.020;113.548;2024-02-21T05:36:37;94635.69;;;-10.86
72405;BMP280;60395;52.020;113.548;2024-02-21T05:39:40;94633.34;;;-10.84
72405;BMP280;60395;52.020;113.548;2024-02-21T05:42:43;94631.59;;;-10.76
72405;BMP280;60395;52.020;113.548;2024-02-21T05:45:47;94622.88;;;-10.62
72405;BMP280;60395;52.020;113.548;2024-02-21T05:48:52;94630.91;;;-10.58
72405;BMP280;60395;52.020;113.548;2024-02-21T05:51:55;94621.56;;;-10.50
72405;BMP280;60395;52.020;113.548;2024-02-21T05:54:59;94622.91;;;-10.36
72405;BMP280;60395;52.020;113.548;2024-02-21T05:58:02;94615.13;;;-10.24
72405;BMP280;60395;52.020;113.548;2024-02-21T06:01:08;94615.69;;;-10.18
72405;BMP280;60395;52.020;113.548;2024-02-21T06:04:12;94615.13;;;-10.11
72405;BMP280;60395;52.020;113.548;2024-02-21T06:07:16;94619.13;;;-10.03
72405;BMP280;60395;52.020;113.548;2024-02-21T06:10:19;94616.69;;;-9.95
72405;BMP280;60395;52.020;113.548;2024-02-21T06:13:26;94611.88;;;-9.85
72405;BMP280;60395;52.020;113.548;2024-02-21T06:16:30;94616.19;;;-9.80
72405;BMP280;60395;52.020;113.548;2024-02-21T06:19:33;94613.75;;;-9.73
72405;BMP280;60395;52.020;113.548;2024-02-21T06:22:37;94617.34;;;-9.55
72405;BMP280;60395;52.020;113.548;2024-02-21T06:25:41;94618.31;;;-9.45
72405;BMP280;60395;52.020;113.548;2024-02-21T06:28:44;94615.44;;;-9.41
72405;BMP280;60395;52.020;113.548;2024-02-21T06:31:49;94613.78;;;-9.39
72405;BMP280;60395;52.020;113.548;2024-02-21T06:34:53;94608.75;;;-9.31
72405;BMP280;60395;52.020;113.548;2024-02-21T06:37:56;94602.56;;;-9.22
72405;BMP280;60395;52.020;113.548;2024-02-21T06:41:00;94591.69;;;-9.23
72405;BMP280;60395;52.020;113.548;2024-02-21T06:44:05;94598.72;;;-9.16
72405;BMP280;60395;52.020;113.548;2024-02-21T06:47:09;94594.88;;;-9.09
72405;BMP280;60395;52.020;113.548;2024-02-21T06:50:12;94589.50;;;-9.06
72405;BMP280;60395;52.020;113.548;2024-02-21T06:53:16;94570.66;;;-9.03
72405;BMP280;60395;52.020;113.548;2024-02-21T06:56:19;94575.50;;;-8.92
72405;BMP280;60395;52.020;113.548;2024-02-21T06:59:23;94573.69;;;-8.83
72405;BMP280;60395;52.020;113.548;2024-02-21T07:02:26;94569.34;;;-8.75
72405;BMP280;60395;52.020;113.548;2024-02-21T07:05:30;94571.25;;;-8.68
72405;BMP280;60395;52.020;113.548;2024-02-21T07:08:33;94575.34;;;-8.65
72405;BMP280;60395;52.020;113.548;2024-02-21T07:11:37;94565.34;;;-8.63
72405;BMP280;60395;52.020;113.548;2024-02-21T07:14:40;94569.63;;;-8.58
72405;BMP280;60395;52.020;113.548;2024-02-21T07:17:43;94570.13;;;-8.60
72405;BMP280;60395;52.020;113.548;2024-02-21T07:20:47;94557.34;;;-8.67
72405;BMP280;60395;52.020;113.548;2024-02-21T07:23:50;94560.75;;;-8.65
72405;BMP280;60395;52.020;113.548;2024-02-21T07:26:54;94569.25;;;-8.62
72405;BMP280;60395;52.020;113.548;2024-02-21T07:29:58;94558.06;;;-8.59
72405;BMP280;60395;52.020;113.548;2024-02-21T07:33:02;94551.13;;;-8.59
72405;BMP280;60395;52.020;113.548;2024-02-21T07:36:10;94546.19;;;-8.57
72405;BMP280;60395;52.020;113.548;2024-02-21T07:39:14;94558.69;;;-8.66
72405;BMP280;60395;52.020;113.548;2024-02-21T07:42:18;94560.75;;;-8.65
72405;BMP280;60395;52.020;113.548;2024-02-21T07:45:21;94567.38;;;-8.62
72405;BMP280;60395;52.020;113.548;2024-02-21T07:48:26;94570.31;;;-8.58
72405;BMP280;60395;52.020;113.548;2024-02-21T07:51:32;94567.06;;;-8.58
72405;BMP280;60395;52.020;113.548;2024-02-21T07:54:35;94569.75;;;-8.64
72405;BMP280;60395;52.020;113.548;2024-02-21T07:57:39;94577.19;;;-8.66
72405;BMP280;60395;52.020;113.548;2024-02-21T08:00:44;94568.53;;;-8.70
72405;BMP280;60395;52.020;113.548;2024-02-21T08:03:48;94570.34;;;-8.78
72405;BMP280;60395;52.020;113.548;2024-02-21T08:06:53;94576.78;;;-8.77
72405;BMP280;60395;52.020;113.548;2024-02-21T08:09:57;94575.78;;;-8.74
72405;BMP280;60395;52.020;113.548;2024-02-21T08:13:00;94583.78;;;-8.78
72405;BMP280;60395;52.020;113.548;2024-02-21T08:16:04;94574.88;;;-8.84
72405;BMP280;60395;52.020;113.548;2024-02-21T08:19:07;94562.28;;;-8.90
72405;BMP280;60395;52.020;113.548;2024-02-21T08:22:11;94555.81;;;-8.91
72405;BMP280;60395;52.020;113.548;2024-02-21T08:25:14;94559.38;;;-8.94
72405;BMP280;60395;52.020;113.548;2024-02-21T08:28:17;94555.25;;;-8.97
72405;BMP280;60395;52.020;113.548;2024-02-21T08:31:21;94558.16;;;-8.93
72405;BMP280;60395;52.020;113.548;2024-02-21T08:34:26;94550.84;;;-8.97
72405;BMP280;60395;52.020;113.548;2024-02-21T08:37:29;94555.88;;;-9.04
72405;BMP280;60395;52.020;113.548;2024-02-21T08:40:32;94555.72;;;-9.06
72405;BMP280;60395;52.020;113.548;2024-02-21T08:43:38;94559.09;;;-9.04
72405;BMP280;60395;52.020;113.548;2024-02-21T08:46:41;94554.28;;;-9.15
72405;BMP280;60395;52.020;113.548;2024-02-21T08:49:45;94561.06;;;-9.17
72405;BMP280;60395;52.020;113.548;2024-02-21T08:52:48;94564.53;;;-9.07
72405;BMP280;60395;52.020;113.548;2024-02-21T08:55:52;94563.41;;;-8.99
72405;BMP280;60395;52.020;113.548;2024-02-21T08:58:55;94576.66;;;-8.93
72405;BMP280;60395;52.020;113.548;2024-02-21T09:02:00;94570.31;;;-9.07
72405;BMP280;60395;52.020;113.548;2024-02-21T09:05:05;94560.66;;;-9.21
72405;BMP280;60395;52.020;113.548;2024-02-21T09:08:09;94567.47;;;-9.37
72405;BMP280;60395;52.020;113.548;2024-02-21T09:11:12;94563.81;;;-9.49
72405;BMP280;60395;52.020;113.548;2024-02-21T09:14:16;94564.34;;;-9.64
72405;BMP280;60395;52.020;113.548;2024-02-21T09:17:20;94566.72;;;-9.79
72405;BMP280;60395;52.020;113.548;2024-02-21T09:20:28;94574.16;;;-9.94
72405;BMP280;60395;52.020;113.548;2024-02-21T09:23:32;94573.84;;;-9.91
72405;BMP280;60395;52.020;113.548;2024-02-21T09:26:35;94571.47;;;-9.63
72405;BMP280;60395;52.020;113.548;2024-02-21T09:29:39;94573.13;;;-9.65
72405;BMP280;60395;52.020;113.548;2024-02-21T09:32:43;94584.25;;;-9.89
72405;BMP280;60395;52.020;113.548;2024-02-21T09:35:46;94580.53;;;-10.14
72405;BMP280;60395;52.020;113.548;2024-02-21T09:38:51;94587.19;;;-10.38
72405;BMP280;60395;52.020;113.548;2024-02-21T09:42:01;94585.19;;;-10.58
72405;BMP280;60395;52.020;113.548;2024-02-21T09:45:23;94588.88;;;-10.72
72405;BMP280;60395;52.020;113.548;2024-02-21T09:48:36;94585.63;;;-10.86
72405;BMP280;60395;52.020;113.548;2024-02-21T09:51:43;94587.44;;;-10.99
72405;BMP280;60395;52.020;113.548;2024-02-21T09:54:48;94587.31;;;-11.07
72405;BMP280;60395;52.020;113.548;2024-02-21T09:57:52;94587.84;;;-11.14
72405;BMP280;60395;52.020;113.548;2024-02-21T10:00:57;94595.91;;;-11.29
72405;BMP280;60395;52.020;113.548;2024-02-21T10:04:01;94594.19;;;-11.40
72405;BMP280;60395;52.020;113.548;2024-02-21T10:07:06;94596.78;;;-11.45
72405;BMP280;60395;52.020;113.548;2024-02-21T10:10:10;94595.25;;;-11.48
72405;BMP280;60395;52.020;113.548;2024-02-21T10:13:26;94598.38;;;-11.61
72405;BMP280;60395;52.020;113.548;2024-02-21T10:16:30;94604.44;;;-11.69
72405;BMP280;60395;52.020;113.548;2024-02-21T10:19:35;94613.09;;;-11.78
72405;BMP280;60395;52.020;113.548;2024-02-21T10:22:38;94612.25;;;-11.86
72405;BMP280;60395;52.020;113.548;2024-02-21T10:25:42;94610.25;;;-11.93
72405;BMP280;60395;52.020;113.548;2024-02-21T10:28:49;94617.41;;;-11.97
72405;BMP280;60395;52.020;113.548;2024-02-21T10:32:11;94620.22;;;-12.01
72405;BMP280;60395;52.020;113.548;2024-02-21T10:35:25;94621.66;;;-12.05
72405;BMP280;60395;52.020;113.548;2024-02-21T10:38:30;94619.16;;;-12.11
72405;BMP280;60395;52.020;113.548;2024-02-21T10:41:33;94625.66;;;-12.16
72405;BMP280;60395;52.020;113.548;2024-02-21T10:44:38;94631.47;;;-12.21
72405;BMP280;60395;52.020;113.548;2024-02-21T10:47:48;94632.84;;;-12.25
72405;BMP280;60395;52.020;113.548;2024-02-21T10:50:57;94640.50;;;-12.31
72405;BMP280;60395;52.020;113.548;2024-02-21T10:57:26;94636.44;;;-12.39
72405;BMP280;60395;52.020;113.548;2024-02-21T11:00:31;94641.28;;;-12.42
72405;BMP280;60395;52.020;113.548;2024-02-21T11:03:35;94650.97;;;-12.46
72405;BMP280;60395;52.020;113.548;2024-02-21T11:06:41;94667.81;;;-12.48
72405;BMP280;60395;52.020;113.548;2024-02-21T11:09:53;94652.66;;;-12.54
72405;BMP280;60395;52.020;113.548;2024-02-21T11:13:08;94665.38;;;-12.59
72405;BMP280;60395;52.020;113.548;2024-02-21T11:16:21;94661.44;;;-12.60
72405;BMP280;60395;52.020;113.548;2024-02-21T11:19:26;94658.97;;;-12.66
72405;BMP280;60395;52.020;113.548;2024-02-21T11:22:40;94664.06;;;-12.71
72405;BMP280;60395;52.020;113.548;2024-02-21T11:25:44;94657.19;;;-12.77
72405;BMP280;60395;52.020;113.548;2024-02-21T11:29:01;94660.66;;;-12.80
72405;BMP280;60395;52.020;113.548;2024-02-21T11:32:09;94677.22;;;-12.84
72405;BMP280;60395;52.020;113.548;2024-02-21T11:35:20;94664.13;;;-12.88
72405;BMP280;60395;52.020;113.548;2024-02-21T11:39:10;94665.06;;;-12.91
72405;BMP280;60395;52.020;113.548;2024-02-21T11:42:59;94672.44;;;-12.93
72405;BMP280;60395;52.020;113.548;2024-02-21T11:46:02;94669.97;;;-12.99
72405;BMP280;60395;52.020;113.548;2024-02-21T11:49:07;94669.03;;;-13.01
72405;BMP280;60395;52.020;113.548;2024-02-21T11:52:11;94678.44;;;-13.02
72405;BMP280;60395;52.020;113.548;2024-02-21T11:55:14;94671.81;;;-13.05
72405;BMP280;60395;52.020;113.548;2024-02-21T11:58:18;94674.81;;;-13.06
72405;BMP280;60395;52.020;113.548;2024-02-21T12:01:21;94663.78;;;-13.09
72405;BMP280;60395;52.020;113.548;2024-02-21T12:04:25;94666.09;;;-13.11
72405;BMP280;60395;52.020;113.548;2024-02-21T12:07:29;94664.03;;;-13.13
72405;BMP280;60395;52.020;113.548;2024-02-21T12:10:35;94658.75;;;-13.15
72405;BMP280;60395;52.020;113.548;2024-02-21T12:13:39;94658.97;;;-13.13
72405;BMP280;60395;52.020;113.548;2024-02-21T12:16:43;94668.44;;;-13.19
72405;BMP280;60395;52.020;113.548;2024-02-21T12:19:51;94658.34;;;-13.24
72405;BMP280;60395;52.020;113.548;2024-02-21T12:22:54;94669.38;;;-13.27
72405;BMP280;60395;52.020;113.548;2024-02-21T12:25:59;94669.38;;;-13.33
72405;BMP280;60395;52.020;113.548;2024-02-21T12:29:03;94657.47;;;-13.32
72405;BMP280;60395;52.020;113.548;2024-02-21T12:32:06;94662.28;;;-13.40
72405;BMP280;60395;52.020;113.548;2024-02-21T12:35:10;94656.56;;;-13.46
72405;BMP280;60395;52.020;113.548;2024-02-21T12:38:14;94653.34;;;-13.52
72405;BMP280;60395;52.020;113.548;2024-02-21T12:41:17;94666.94;;;-13.55
72405;BMP280;60395;52.020;113.548;2024-02-21T12:44:21;94667.91;;;-13.58
72405;BMP280;60395;52.020;113.548;2024-02-21T12:47:24;94654.09;;;-13.63
72405;BMP280;60395;52.020;113.548;2024-02-21T12:50:29;94654.09;;;-13.63
72405;BMP280;60395;52.020;113.548;2024-02-21T12:53:34;94662.16;;;-13.64
72405;BMP280;60395;52.020;113.548;2024-02-21T12:56:38;94671.09;;;-13.69
72405;BMP280;60395;52.020;113.548;2024-02-21T13:00:08;94666.53;;;-13.70
72405;BMP280;60395;52.020;113.548;2024-02-21T13:03:12;94667.66;;;-13.71
72405;BMP280;60395;52.020;113.548;2024-02-21T13:06:16;94669.97;;;-13.73
72405;BMP280;60395;52.020;113.548;2024-02-21T13:09:22;94665.81;;;-13.71
72405;BMP280;60395;52.020;113.548;2024-02-21T13:12:26;94666.75;;;-13.74
72405;BMP280;60395;52.020;113.548;2024-02-21T13:15:31;94662.38;;;-13.73
72405;BMP280;60395;52.020;113.548;2024-02-21T13:18:35;94670.91;;;-13.77
72405;BMP280;60395;52.020;113.548;2024-02-21T13:21:41;94684.66;;;-13.78
72405;BMP280;60395;52.020;113.548;2024-02-21T13:24:45;94694.34;;;-13.82
72405;BMP280;60395;52.020;113.548;2024-02-21T13:27:49;94696.38;;;-13.86
72405;BMP280;60395;52.020;113.548;2024-02-21T13:30:52;94703.28;;;-13.86
72405;BMP280;60395;52.020;113.548;2024-02-21T13:33:56;94713.63;;;-13.90
72405;BMP280;60395;52.020;113.548;2024-02-21T13:37:00;94703.28;;;-13.86
72405;BMP280;60395;52.020;113.548;2024-02-21T13:40:05;94706.72;;;-13.84
72405;BMP280;60395;52.020;113.548;2024-02-21T13:43:09;94713.16;;;-13.88
72405;BMP280;60395;52.020;113.548;2024-02-21T13:46:13;94717.53;;;-13.94
72405;BMP280;60395;52.020;113.548;2024-02-21T13:49:16;94717.75;;;-13.98
72405;BMP280;60395;52.020;113.548;2024-02-21T13:52:20;94724.41;;;-14.00
72405;BMP280;60395;52.020;113.548;2024-02-21T13:55:24;94723.72;;;-14.06
72405;BMP280;60395;52.020;113.548;2024-02-21T13:58:31;94721.19;;;-14.06
72405;BMP280;60395;52.020;113.548;2024-02-21T14:01:35;94732.44;;;-14.07
72405;BMP280;60395;52.020;113.548;2024-02-21T14:04:39;94718.91;;;-14.10
72405;BMP280;60395;52.020;113.548;2024-02-21T14:07:42;94721.41;;;-14.10
72405;BMP280;60395;52.020;113.548;2024-02-21T14:10:47;94722.56;;;-14.11
72405;BMP280;60395;52.020;113.548;2024-02-21T14:13:50;94729.25;;;-14.08
72405;BMP280;60395;52.020;113.548;2024-02-21T14:16:54;94727.16;;;-14.10
72405;BMP280;60395;52.020;113.548;2024-02-21T14:19:59;94723.25;;;-14.05
72405;BMP280;60395;52.020;113.548;2024-02-21T14:23:03;94728.75;;;-14.01
72405;BMP280;60395;52.020;113.548;2024-02-21T14:26:10;94726.00;;;-14.03
72405;BMP280;60395;52.020;113.548;2024-02-21T14:29:15;94720.03;;;-14.11
72405;BMP280;60395;52.020;113.548;2024-02-21T14:32:18;94728.31;;;-14.11
72405;BMP280;60395;52.020;113.548;2024-02-21T14:35:22;94721.88;;;-14.12
72405;BMP280;60395;52.020;113.548;2024-02-21T14:38:26;94716.81;;;-14.12
72405;BMP280;60395;52.020;113.548;2024-02-21T14:41:30;94723.25;;;-14.11
72405;BMP280;60395;52.020;113.548;2024-02-21T14:44:33;94726.22;;;-14.12
72405;BMP280;60395;52.020;113.548;2024-02-21T14:47:38;94730.59;;;-14.18
72405;BMP280;60395;52.020;113.548;2024-02-21T14:50:41;94732.41;;;-14.24
72405;BMP280;60395;52.020;113.548;2024-02-21T14:53:47;94735.41;;;-14.26
72405;BMP280;60395;52.020;113.548;2024-02-21T14:56:51;94731.75;;;-14.30
72405;BMP280;60395;52.020;113.548;2024-02-21T14:59:54;94731.94;;;-14.34
72405;BMP280;60395;52.020;113.548;2024-02-21T15:03:03;94738.13;;;-14.29
72405;BMP280;60395;52.020;113.548;2024-02-21T15:06:06;94742.50;;;-14.30
72405;BMP280;60395;52.020;113.548;2024-02-21T15:09:10;94742.97;;;-14.31
72405;BMP280;60395;52.020;113.548;2024-02-21T15:12:16;94743.19;;;-14.35
72405;BMP280;60395;52.020;113.548;2024-02-21T15:15:20;94733.78;;;-14.34
72405;BMP280;60395;52.020;113.548;2024-02-21T15:18:24;94741.81;;;-14.36
72405;BMP280;60395;52.020;113.548;2024-02-21T15:21:27;94735.84;;;-14.38
72405;BMP280;60395;52.020;113.548;2024-02-21T15:24:30;94738.38;;;-14.38
72405;BMP280;60395;52.020;113.548;2024-02-21T15:27:35;94740.19;;;-14.33
72405;BMP280;60395;52.020;113.548;2024-02-21T15:30:41;94735.16;;;-14.33
72405;BMP280;60395;52.020;113.548;2024-02-21T15:33:45;94727.59;;;-14.33
72405;BMP280;60395;52.020;113.548;2024-02-21T15:36:48;94736.97;;;-14.39
72405;BMP280;60395;52.020;113.548;2024-02-21T15:39:52;94732.59;;;-14.45
72405;BMP280;60395;52.020;113.548;2024-02-21T15:42:55;94728.00;;;-14.52
72405;BMP280;60395;52.020;113.548;2024-02-21T15:45:59;94724.34;;;-14.56
72405;BMP280;60395;52.020;113.548;2024-02-21T15:49:03;94726.41;;;-14.55
72405;BMP280;60395;52.020;113.548;2024-02-21T15:52:06;94723.88;;;-14.55
72405;BMP280;60395;52.020;113.548;2024-02-21T15:55:10;94725.03;;;-14.56
72405;BMP280;60395;52.020;113.548;2024-02-21T15:58:15;94731.00;;;-14.59
72405;BMP280;60395;52.020;113.548;2024-02-21T16:01:18;94724.09;;;-14.64
72405;BMP280;60395;52.020;113.548;2024-02-21T16:04:22;94730.50;;;-14.63
72405;BMP280;60395;52.020;113.548;2024-02-21T16:07:25;94733.00;;;-14.63
72405;BMP280;60395;52.020;113.548;2024-02-21T16:10:30;94737.63;;;-14.67
72405;BMP280;60395;52.020;113.548;2024-02-21T16:13:34;94729.56;;;-14.71
72405;BMP280;60395;52.020;113.548;2024-02-21T16:16:39;94733.47;;;-14.76
72405;BMP280;60395;52.020;113.548;2024-02-21T16:33:45;94725.66;;;-14.78
72405;BMP280;60395;52.020;113.548;2024-02-21T16:36:48;94718.31;;;-14.81
72405;BMP280;60395;52.020;113.548;2024-02-21T16:39:52;94722.22;;;-14.80
72405;BMP280;60395;52.020;113.548;2024-02-21T16:42:56;94722.44;;;-14.84
72405;BMP280;60395;52.020;113.548;2024-02-21T16:46:01;94737.56;;;-14.84
72405;BMP280;60395;52.020;113.548;2024-02-21T16:49:05;94729.06;;;-14.86
72405;BMP280;60395;52.020;113.548;2024-02-21T16:52:09;94727.25;;;-14.91
72405;BMP280;60395;52.020;113.548;2024-02-21T16:55:13;94722.63;;;-14.93
72405;BMP280;60395;52.020;113.548;2024-02-21T16:58:18;94729.25;;;-14.95
72405;BMP280;60395;52.020;113.548;2024-02-21T17:01:21;94730.41;;;-14.96
72405;BMP280;60395;52.020;113.548;2024-02-21T17:04:25;94734.06;;;-14.97
72405;BMP280;60395;52.020;113.548;2024-02-21T17:07:28;94729.94;;;-14.95
72405;BMP280;60395;52.020;113.548;2024-02-21T17:10:32;94722.19;;;-14.97
72405;BMP280;60395;52.020;113.548;2024-02-21T17:13:36;94733.38;;;-14.98
72405;BMP280;60395;52.020;113.548;2024-02-21T17:16:40;94732.00;;;-14.99
72405;BMP280;60395;52.020;113.548;2024-02-21T17:19:43;94730.84;;;-15.03